createdAt,value
2023-11-22T00:02:04.341Z,16.63
2023-11-22T00:04:30.878Z,19.70
2023-11-22T00:06:57.387Z,16.07
2023-11-22T00:09:24.376Z,15.10
2023-11-22T00:11:51.097Z,15.57
2023-11-22T00:14:17.804Z,17.10
2023-11-22T00:16:44.446Z,18.57
2023-11-22T00:19:11.005Z,18.77
2023-11-22T00:21:37.617Z,20.80
2023-11-22T00:24:05.531Z,19.70
2023-11-22T00:26:33.589Z,18.83
2023-11-22T00:29:00.879Z,17.83
2023-11-22T00:31:27.532Z,17.07
2023-11-22T00:33:54.127Z,21.87
2023-11-22T00:36:20.981Z,17.83
2023-11-22T00:38:47.505Z,18.87
2023-11-22T00:41:16.126Z,19.70
2023-11-22T00:43:42.728Z,19.93
2023-11-22T00:46:09.334Z,17.50
2023-11-22T00:48:35.865Z,22.30
2023-11-22T00:51:08.781Z,18.30
2023-11-22T00:53:37.368Z,17.70
2023-11-22T00:56:05.102Z,19.83
2023-11-22T00:58:31.658Z,17.77
2023-11-22T01:00:58.689Z,20.50
2023-11-22T01:03:25.299Z,18.47
2023-11-22T01:05:52.017Z,17.10
2023-11-22T01:08:18.609Z,18.60
2023-11-22T01:10:45.147Z,19.27
2023-11-22T01:13:11.720Z,20.53
2023-11-22T01:15:38.372Z,19.63
2023-11-22T01:18:05.074Z,21.43
2023-11-22T01:20:31.646Z,19.47
2023-11-22T01:22:58.258Z,21.23
2023-11-22T01:25:24.835Z,21.57
2023-11-22T01:27:51.330Z,20.83
2023-11-22T01:30:19.663Z,23.20
2023-11-22T01:32:46.302Z,19.63
2023-11-22T01:35:12.929Z,21.73
2023-11-22T01:37:39.454Z,22.60
2023-11-22T01:40:07.384Z,24.60
2023-11-22T01:42:33.967Z,23.93
2023-11-22T01:45:00.453Z,24.37
2023-11-22T01:47:28.239Z,26.37
2023-11-22T01:49:55.382Z,23.37
2023-11-22T01:52:22.629Z,22.93
2023-11-22T01:54:49.203Z,26.73
2023-11-22T01:57:15.707Z,26.57
2023-11-22T01:59:42.294Z,24.93
2023-11-22T02:02:09.406Z,26.30
2023-11-22T02:04:36.360Z,23.83
2023-11-22T02:07:03.151Z,25.40
2023-11-22T02:09:29.656Z,28.00
2023-11-22T02:11:56.236Z,31.13
2023-11-22T02:14:22.778Z,29.47
2023-11-22T02:16:49.325Z,25.83
2023-11-22T02:19:16.409Z,28.90
2023-11-22T02:21:43.104Z,33.07
2023-11-22T02:24:10.372Z,30.87
2023-11-22T02:26:37.872Z,28.93
2023-11-22T02:29:07.876Z,30.40
2023-11-22T02:31:35.284Z,29.83
2023-11-22T02:34:01.838Z,22.13
2023-11-22T02:36:28.492Z,25.27
2023-11-22T02:38:55.457Z,21.20
2023-11-22T02:41:22.053Z,20.77
2023-11-22T02:43:48.644Z,23.40
2023-11-22T02:46:15.283Z,28.37
2023-11-22T02:48:41.847Z,26.43
2023-11-22T02:51:08.365Z,24.10
2023-11-22T02:53:35.114Z,28.07
2023-11-22T02:56:01.957Z,24.97
2023-11-22T02:58:29.555Z,27.83
2023-11-22T03:00:58.418Z,26.93
2023-11-22T03:03:28.753Z,25.50
2023-11-22T03:05:55.828Z,29.93
2023-11-22T03:08:22.950Z,24.20
2023-11-22T03:10:49.485Z,25.73
2023-11-22T03:13:16.002Z,28.87
2023-11-22T03:15:43.729Z,27.77
2023-11-22T03:18:10.560Z,25.30
2023-11-22T03:20:38.772Z,24.57
2023-11-22T03:23:05.965Z,26.13
2023-11-22T03:25:32.530Z,24.23
2023-11-22T03:27:59.036Z,24.73
2023-11-22T03:30:25.672Z,25.07
2023-11-22T03:32:52.275Z,27.77
2023-11-22T03:35:19.002Z,28.87
2023-11-22T03:37:45.578Z,26.57
2023-11-22T03:40:12.561Z,25.00
2023-11-22T03:42:40.020Z,31.83
2023-11-22T03:45:07.059Z,30.10
2023-11-22T03:47:34.602Z,25.17
2023-11-22T03:50:01.419Z,25.10
2023-11-22T03:52:30.991Z,28.23
2023-11-22T03:54:58.622Z,26.40
2023-11-22T03:57:25.156Z,27.30
2023-11-22T03:59:51.867Z,24.77
2023-11-22T04:02:18.672Z,22.13
2023-11-22T04:04:45.888Z,24.80
2023-11-22T04:07:12.393Z,18.53
2023-11-22T04:09:39.189Z,17.30
2023-11-22T04:12:06.021Z,17.73
2023-11-22T04:14:32.669Z,17.87
2023-11-22T04:16:59.728Z,16.90
2023-11-22T04:19:26.631Z,16.33
2023-11-22T04:21:55.542Z,21.07
2023-11-22T04:24:22.558Z,19.67
2023-11-22T04:26:49.608Z,18.17
2023-11-22T04:29:17.894Z,17.37
2023-11-22T04:31:44.622Z,19.70
2023-11-22T04:34:11.165Z,21.70
2023-11-22T04:36:38.409Z,18.67
2023-11-22T04:39:05.708Z,21.80
2023-11-22T04:41:32.377Z,19.17
2023-11-22T04:43:58.942Z,23.03
2023-11-22T04:46:25.482Z,17.97
2023-11-22T04:48:52.757Z,21.00
2023-11-22T04:51:19.488Z,16.30
2023-11-22T04:53:46.035Z,19.70
2023-11-22T04:56:12.598Z,20.13
2023-11-22T04:58:39.178Z,18.03
2023-11-22T05:01:05.958Z,18.80
2023-11-22T05:03:32.571Z,16.37
2023-11-22T05:05:59.140Z,16.93
2023-11-22T05:08:26.698Z,16.83
2023-11-22T05:10:54.557Z,15.30
2023-11-22T05:13:21.433Z,16.53
2023-11-22T05:15:48.305Z,18.40
2023-11-22T05:18:15.114Z,12.33
2023-11-22T05:20:41.758Z,18.67
2023-11-22T05:23:08.368Z,13.43
2023-11-22T05:25:34.916Z,13.17
2023-11-22T05:28:01.581Z,14.63
2023-11-22T05:30:28.596Z,16.83
2023-11-22T05:32:55.286Z,16.07
2023-11-22T05:35:21.896Z,18.07
2023-11-22T05:37:48.880Z,18.53
2023-11-22T05:40:17.268Z,15.00
2023-11-22T05:42:44.197Z,18.37
2023-11-22T05:45:10.827Z,18.87
2023-11-22T05:47:37.493Z,16.30
2023-11-22T05:50:04.538Z,15.43
2023-11-22T05:52:31.117Z,16.83
2023-11-22T05:54:57.780Z,16.37
2023-11-22T05:57:24.348Z,14.97
2023-11-22T05:59:50.976Z,15.03
2023-11-22T06:02:17.886Z,15.27
2023-11-22T06:04:44.831Z,19.13
2023-11-22T06:07:11.479Z,19.07
2023-11-22T06:09:38.007Z,19.73
2023-11-22T06:12:04.629Z,17.47
2023-11-22T06:14:31.268Z,20.50
2023-11-22T06:16:57.896Z,24.03
2023-11-22T06:19:24.499Z,19.30
2023-11-22T06:21:51.034Z,21.70
2023-11-22T06:24:17.607Z,20.97
2023-11-22T06:26:44.812Z,19.70
2023-11-22T06:29:11.572Z,17.73
2023-11-22T06:31:38.158Z,17.23
2023-11-22T06:34:04.736Z,18.03
2023-11-22T06:36:31.234Z,16.67
2023-11-22T06:38:57.828Z,15.53
2023-11-22T06:41:24.368Z,17.60
2023-11-22T06:43:50.933Z,16.63
2023-11-22T06:46:20.494Z,17.50
2023-11-22T06:48:49.688Z,17.10
2023-11-22T06:51:17.033Z,20.50
2023-11-22T06:53:43.709Z,18.93
2023-11-22T06:56:10.278Z,20.27
2023-11-22T06:58:36.876Z,20.17
2023-11-22T07:01:03.515Z,21.93
2023-11-22T07:03:30.183Z,22.13
2023-11-22T07:05:57.176Z,23.73
2023-11-22T07:08:23.746Z,25.80
2023-11-22T07:10:51.925Z,23.27
2023-11-22T07:13:19.653Z,20.73
2023-11-22T07:15:46.153Z,18.63
2023-11-22T07:18:14.281Z,20.03
2023-11-22T07:20:41.017Z,16.83
2023-11-22T07:23:08.164Z,17.27
2023-11-22T07:25:35.227Z,18.73
2023-11-22T07:28:01.847Z,21.40
2023-11-22T07:30:31.862Z,24.63
2023-11-22T07:33:00.638Z,23.40
2023-11-22T07:35:29.701Z,22.20
2023-11-22T07:37:56.534Z,22.03
2023-11-22T07:40:23.666Z,25.00
2023-11-22T07:42:50.563Z,22.53
2023-11-22T07:45:18.389Z,22.83
2023-11-22T07:47:45.555Z,26.27
2023-11-22T07:50:13.137Z,26.20
2023-11-22T07:52:41.556Z,21.83
2023-11-22T07:55:09.392Z,28.57
2023-11-22T07:57:36.211Z,26.20
2023-11-22T08:00:05.996Z,24.00
2023-11-22T08:02:34.506Z,31.33
2023-11-22T08:05:04.638Z,23.07
2023-11-22T08:07:31.421Z,23.53
2023-11-22T08:09:58.092Z,24.93
2023-11-22T08:12:24.636Z,24.53
2023-11-22T08:14:52.793Z,24.97
2023-11-22T08:17:20.788Z,22.47
2023-11-22T08:19:49.323Z,23.93
2023-11-22T08:22:15.858Z,26.20
2023-11-22T08:24:42.496Z,23.37
2023-11-22T08:27:09.183Z,24.33
2023-11-22T08:29:35.729Z,25.50
2023-11-22T08:32:03.554Z,19.90
2023-11-22T08:34:30.167Z,22.83
2023-11-22T08:36:58.674Z,24.33
2023-11-22T08:39:25.340Z,26.63
2023-11-22T08:41:51.945Z,21.60
2023-11-22T08:44:18.604Z,20.10
2023-11-22T08:46:45.233Z,19.97
2023-11-22T08:49:12.788Z,22.90
2023-11-22T08:51:39.359Z,19.37
2023-11-22T08:54:06.050Z,19.57
2023-11-22T08:56:32.596Z,21.83
2023-11-22T08:58:59.202Z,20.67
2023-11-22T09:01:27.103Z,22.17
2023-11-22T09:03:53.792Z,19.40
2023-11-22T09:06:20.416Z,18.37
2023-11-22T09:08:47.606Z,23.63
2023-11-22T09:11:14.513Z,21.17
2023-11-22T09:13:41.219Z,19.17
2023-11-22T09:16:09.637Z,20.67
2023-11-22T09:18:36.390Z,23.57
2023-11-22T09:21:03.522Z,18.30
2023-11-22T09:23:31.246Z,15.17
2023-11-22T09:25:57.998Z,21.43
2023-11-22T09:28:24.580Z,20.80
2023-11-22T09:30:52.178Z,15.13
2023-11-22T09:33:20.008Z,19.70
2023-11-22T09:35:48.661Z,17.00
2023-11-22T09:38:17.530Z,15.73
2023-11-22T09:40:48.672Z,14.37
2023-11-22T09:43:26.041Z,14.40
2023-11-22T09:45:57.637Z,14.30
2023-11-22T09:48:29.630Z,16.17
2023-11-22T09:51:12.062Z,15.53
2023-11-22T09:53:42.189Z,13.70
2023-11-22T09:56:09.092Z,12.77
2023-11-22T09:58:36.003Z,11.60
2023-11-22T10:01:02.764Z,10.83
2023-11-22T10:03:32.570Z,10.53
2023-11-22T10:06:00.357Z,13.77
2023-11-22T10:08:28.616Z,11.23
2023-11-22T10:10:55.577Z,12.93
2023-11-22T10:13:22.374Z,9.40
2023-11-22T10:15:49.634Z,9.57
2023-11-22T10:18:16.257Z,12.53
2023-11-22T10:20:43.170Z,12.27
2023-11-22T10:23:10.313Z,10.80
2023-11-22T10:25:46.579Z,8.50
2023-11-22T10:28:13.905Z,10.17
2023-11-22T10:30:41.672Z,11.87
2023-11-22T10:33:08.367Z,11.60
2023-11-22T10:35:34.974Z,16.17
2023-11-22T10:38:07.826Z,14.43
2023-11-22T10:40:34.616Z,14.43
2023-11-22T10:43:01.127Z,17.60
2023-11-22T10:45:28.463Z,23.57
2023-11-22T10:47:55.666Z,13.37
2023-11-22T10:50:23.285Z,14.57
2023-11-22T10:52:53.654Z,16.20
2023-11-22T10:55:20.192Z,12.57
2023-11-22T10:57:49.343Z,13.50
2023-11-22T11:00:16.396Z,18.97
2023-11-22T11:02:47.301Z,11.00
2023-11-22T11:05:19.349Z,13.67
2023-11-22T11:07:58.248Z,13.37
2023-11-22T11:10:25.570Z,17.67
2023-11-22T11:12:52.671Z,13.23
2023-11-22T11:15:19.513Z,11.37
2023-11-22T11:17:48.258Z,13.43
2023-11-22T11:20:16.720Z,14.33
2023-11-22T11:22:43.258Z,13.43
2023-11-22T11:25:09.796Z,10.33
2023-11-22T11:27:40.022Z,12.53
2023-11-22T11:30:39.346Z,12.03
2023-11-22T11:33:06.089Z,10.83
2023-11-22T11:35:39.873Z,9.93
2023-11-22T11:38:06.636Z,12.53
2023-11-22T11:40:33.354Z,9.73
2023-11-22T11:43:00.361Z,11.50
2023-11-22T11:45:28.202Z,11.83
2023-11-22T11:47:55.406Z,11.90
2023-11-22T11:50:23.062Z,12.73
2023-11-22T11:52:49.673Z,10.90
2023-11-22T11:55:16.438Z,12.10
2023-11-22T11:57:43.199Z,11.23
2023-11-22T12:00:10.819Z,13.20
2023-11-22T12:02:37.489Z,11.03
2023-11-22T12:05:09.978Z,12.80
2023-11-22T12:07:37.797Z,11.23
2023-11-22T12:10:07.725Z,12.47
2023-11-22T12:12:35.302Z,10.57
2023-11-22T12:15:01.941Z,11.57
2023-11-22T12:17:29.224Z,11.10
2023-11-22T12:20:09.659Z,10.73
2023-11-22T12:22:36.242Z,12.90
2023-11-22T12:25:02.857Z,11.67
2023-11-22T12:27:29.724Z,15.47
2023-11-22T12:29:57.053Z,12.47
2023-11-22T12:32:25.186Z,14.53
2023-11-22T12:34:54.195Z,13.43
2023-11-22T12:37:24.553Z,14.77
2023-11-22T12:39:51.241Z,13.87
2023-11-22T12:42:17.858Z,15.67
2023-11-22T12:44:59.782Z,17.53
2023-11-22T12:47:36.490Z,16.93
2023-11-22T12:50:05.311Z,16.13
2023-11-22T12:52:33.955Z,16.73
2023-11-22T12:55:00.550Z,15.13
2023-11-22T12:57:27.106Z,14.83
2023-11-22T12:59:53.640Z,15.20
2023-11-22T13:02:21.101Z,9.07
2023-11-22T13:04:48.009Z,12.03
2023-11-22T13:07:14.635Z,14.87
2023-11-22T13:09:41.139Z,11.83
2023-11-22T13:12:07.909Z,11.70
2023-11-22T13:14:39.358Z,13.57
2023-11-22T13:17:07.995Z,13.93
2023-11-22T13:19:34.777Z,12.60
2023-11-22T13:22:01.310Z,15.37
2023-11-22T13:24:27.961Z,12.67
2023-11-22T13:26:54.886Z,12.07
2023-11-22T13:29:21.455Z,15.93
2023-11-22T13:31:47.969Z,17.60
2023-11-22T13:34:14.519Z,16.10
2023-11-22T13:36:41.085Z,15.80
2023-11-22T13:39:07.629Z,14.63
2023-11-22T13:41:34.196Z,11.80
2023-11-22T13:44:02.459Z,10.10
2023-11-22T13:46:29.191Z,14.10
2023-11-22T13:48:55.791Z,13.27
2023-11-22T13:51:22.314Z,11.00
2023-11-22T13:53:54.397Z,13.33
2023-11-22T13:56:21.672Z,11.20
2023-11-22T13:58:48.213Z,13.20
2023-11-22T14:01:16.569Z,15.43
2023-11-22T14:03:44.059Z,19.00
2023-11-22T14:06:11.077Z,13.33
2023-11-22T14:08:37.712Z,15.07
2023-11-22T14:11:04.717Z,10.93
2023-11-22T14:13:31.305Z,15.60
2023-11-22T14:15:58.060Z,11.67
2023-11-22T14:18:26.185Z,8.77
2023-11-22T14:20:52.786Z,9.77
2023-11-22T14:23:19.353Z,12.30
2023-11-22T14:25:46.679Z,10.07
2023-11-22T14:28:13.210Z,12.57
2023-11-22T14:30:39.892Z,12.17
2023-11-22T14:33:08.819Z,12.07
2023-11-22T14:35:36.769Z,14.20
2023-11-22T14:38:05.193Z,11.13
2023-11-22T14:40:32.632Z,12.93
2023-11-22T14:43:01.546Z,13.60
2023-11-22T14:45:28.439Z,12.47
2023-11-22T14:47:55.190Z,15.83
2023-11-22T14:50:22.708Z,14.27
2023-11-22T14:52:51.492Z,13.43
2023-11-22T14:55:20.031Z,16.13
2023-11-22T14:57:46.687Z,16.83
2023-11-22T15:00:16.131Z,18.70
2023-11-22T15:02:47.913Z,19.30
2023-11-22T15:05:14.717Z,17.10
2023-11-22T15:07:43.252Z,15.73
2023-11-22T15:10:11.000Z,13.60
2023-11-22T15:12:38.012Z,14.33
2023-11-22T15:15:04.752Z,15.00
2023-11-22T15:17:31.993Z,17.03
2023-11-22T15:19:58.553Z,17.43
2023-11-22T15:22:25.118Z,16.27
2023-11-22T15:24:51.643Z,16.23
2023-11-22T15:27:18.132Z,18.47
2023-11-22T15:29:44.798Z,22.10
2023-11-22T15:32:11.568Z,21.40
2023-11-22T15:34:39.008Z,16.70
2023-11-22T15:37:05.537Z,18.73
2023-11-22T15:39:32.246Z,17.90
2023-11-22T15:41:58.808Z,16.50
2023-11-22T15:44:25.374Z,21.27
2023-11-22T15:46:52.031Z,20.23
2023-11-22T15:49:18.806Z,18.20
2023-11-22T15:51:45.423Z,19.80
2023-11-22T15:54:12.616Z,15.83
2023-11-22T15:56:39.167Z,16.50
2023-11-22T15:59:05.840Z,16.23
2023-11-22T16:01:32.607Z,20.87
2023-11-22T16:03:59.302Z,18.87
2023-11-22T16:06:27.741Z,23.90
2023-11-22T16:08:54.307Z,20.73
2023-11-22T16:11:20.974Z,21.07
2023-11-22T16:13:49.028Z,17.27
2023-11-22T16:16:15.710Z,17.10
2023-11-22T16:18:42.430Z,16.73
2023-11-22T16:21:09.577Z,17.23
2023-11-22T16:23:36.405Z,21.83
2023-11-22T16:26:05.833Z,18.23
2023-11-22T16:28:33.275Z,16.30
2023-11-22T16:31:00.509Z,19.67
2023-11-22T16:33:27.159Z,29.70
2023-11-22T16:35:53.817Z,26.47
2023-11-22T16:38:21.038Z,22.23
2023-11-22T16:40:52.156Z,25.67
2023-11-22T16:43:19.484Z,22.00
2023-11-22T16:45:50.602Z,23.07
2023-11-22T16:48:18.102Z,20.73
2023-11-22T16:50:44.924Z,22.40
2023-11-22T16:53:17.041Z,24.67
2023-11-22T16:55:44.236Z,21.00
2023-11-22T16:58:10.756Z,25.60
2023-11-22T17:00:37.588Z,20.00
2023-11-22T17:03:04.380Z,22.67
2023-11-22T17:05:31.021Z,24.27
2023-11-22T17:08:01.371Z,26.67
2023-11-22T17:10:45.288Z,23.40
2023-11-22T17:13:15.342Z,23.60
2023-11-22T17:15:42.704Z,22.50
2023-11-22T17:18:09.943Z,27.07
2023-11-22T17:20:36.989Z,35.33
2023-11-22T17:23:03.834Z,43.87
2023-11-22T17:25:30.409Z,43.00
2023-11-22T17:27:57.108Z,41.70
2023-11-22T17:30:25.833Z,41.53
2023-11-22T17:32:53.041Z,35.40
2023-11-22T17:35:20.077Z,34.43
2023-11-22T17:37:47.926Z,31.27
2023-11-22T17:40:15.334Z,32.43
2023-11-22T17:42:41.882Z,38.63
2023-11-22T17:45:08.980Z,33.13
2023-11-22T17:47:39.013Z,29.00
2023-11-22T17:50:06.301Z,28.27
2023-11-22T17:52:35.878Z,26.00
2023-11-22T17:55:05.104Z,35.10
2023-11-22T17:57:31.817Z,26.03
2023-11-22T17:59:58.356Z,26.63
2023-11-22T18:02:25.109Z,32.27
2023-11-22T18:04:51.889Z,27.53
2023-11-22T18:07:21.090Z,29.37
2023-11-22T18:09:49.526Z,25.17
2023-11-22T18:12:16.860Z,29.60
2023-11-22T18:14:45.878Z,28.33
2023-11-22T18:17:12.965Z,25.53
2023-11-22T18:19:39.685Z,25.90
2023-11-22T18:22:06.361Z,28.37
2023-11-22T18:24:34.031Z,38.17
2023-11-22T18:27:00.951Z,32.30
2023-11-22T18:29:28.722Z,35.10
2023-11-22T18:32:00.423Z,33.00
2023-11-22T18:34:33.837Z,33.90
2023-11-22T18:37:03.734Z,28.10
2023-11-22T18:39:31.899Z,29.87
2023-11-22T18:41:58.525Z,20.97
2023-11-22T18:44:25.507Z,21.83
2023-11-22T18:46:52.108Z,20.27
2023-11-22T18:49:21.333Z,21.97
2023-11-22T18:51:48.404Z,21.67
2023-11-22T18:54:15.046Z,19.07
2023-11-22T18:56:45.428Z,16.27
2023-11-22T18:59:12.145Z,18.37
2023-11-22T19:01:38.851Z,20.17
2023-11-22T19:04:05.915Z,18.53
2023-11-22T19:06:32.438Z,19.77
2023-11-22T19:08:59.232Z,16.97
2023-11-22T19:11:25.928Z,18.83
2023-11-22T19:13:55.036Z,16.13
2023-11-22T19:16:24.269Z,16.73
2023-11-22T19:18:52.228Z,16.23
2023-11-22T19:21:22.487Z,14.23
2023-11-22T19:23:50.304Z,14.60
2023-11-22T19:26:26.088Z,14.63
2023-11-22T19:28:52.804Z,14.63
2023-11-22T19:31:21.416Z,16.97
2023-11-22T19:33:48.193Z,13.80
2023-11-22T19:36:22.206Z,19.43
2023-11-22T19:38:49.811Z,15.07
2023-11-22T19:41:17.021Z,17.70
2023-11-22T19:43:43.605Z,16.10
2023-11-22T19:46:10.337Z,25.67
2023-11-22T19:48:37.247Z,18.47
2023-11-22T19:51:06.751Z,18.07
2023-11-22T19:53:37.391Z,20.27
2023-11-22T19:56:05.689Z,21.47
2023-11-22T19:58:32.344Z,22.30
2023-11-22T20:01:01.867Z,20.50
2023-11-22T20:03:29.728Z,24.30
2023-11-22T20:05:56.489Z,25.07
2023-11-22T20:08:23.204Z,22.07
2023-11-22T20:10:49.855Z,21.83
2023-11-22T20:13:17.670Z,22.77
2023-11-22T20:15:44.324Z,24.90
2023-11-22T20:18:10.954Z,36.17
2023-11-22T20:20:37.614Z,24.70
2023-11-22T20:23:05.295Z,20.93
2023-11-22T20:25:32.149Z,21.17
2023-11-22T20:27:58.820Z,24.80
2023-11-22T20:30:25.339Z,30.33
2023-11-22T20:32:51.958Z,26.03
2023-11-22T20:35:18.556Z,27.87
2023-11-22T20:37:45.186Z,21.03
2023-11-22T20:40:11.924Z,19.93
2023-11-22T20:42:38.591Z,24.00
2023-11-22T20:45:05.681Z,22.27
2023-11-22T20:47:32.886Z,21.40
2023-11-22T20:49:59.466Z,22.80
2023-11-22T20:52:26.373Z,21.53
2023-11-22T20:54:53.193Z,26.83
2023-11-22T20:57:19.936Z,27.57
2023-11-22T20:59:46.719Z,27.30
2023-11-22T21:02:13.472Z,28.80
2023-11-22T21:04:40.400Z,27.37
2023-11-22T21:07:06.911Z,27.77
2023-11-22T21:09:33.584Z,23.30
2023-11-22T21:12:00.347Z,26.00
2023-11-22T21:14:26.909Z,29.93
2023-11-22T21:16:54.866Z,28.60
2023-11-22T21:19:21.577Z,24.73
2023-11-22T21:21:48.575Z,26.53
2023-11-22T21:24:15.339Z,25.57
2023-11-22T21:26:42.430Z,24.20
2023-11-22T21:29:09.115Z,25.07
2023-11-22T21:31:35.856Z,26.63
2023-11-22T21:34:02.536Z,24.90
2023-11-22T21:36:29.149Z,30.03
2023-11-22T21:38:55.888Z,24.70
2023-11-22T21:41:23.993Z,29.63
2023-11-22T21:43:53.242Z,30.70
2023-11-22T21:46:20.029Z,27.53
2023-11-22T21:48:46.885Z,32.37
2023-11-22T21:51:14.069Z,25.10
2023-11-22T21:53:40.975Z,27.60
2023-11-22T21:56:08.100Z,32.40
2023-11-22T21:58:35.974Z,30.30
2023-11-22T22:01:02.667Z,33.50
2023-11-22T22:03:29.333Z,30.73
2023-11-22T22:05:56.110Z,29.53
2023-11-22T22:08:22.819Z,31.60
2023-11-22T22:10:49.439Z,31.20
2023-11-22T22:13:15.968Z,31.07
2023-11-22T22:15:42.843Z,25.23
2023-11-22T22:18:09.504Z,26.53
2023-11-22T22:20:43.362Z,25.20
2023-11-22T22:23:18.440Z,27.70
2023-11-22T22:25:45.067Z,28.50
2023-11-22T22:28:11.761Z,26.27
2023-11-22T22:30:39.099Z,29.20
2023-11-22T22:33:05.859Z,29.23
2023-11-22T22:35:32.529Z,25.57
2023-11-22T22:37:59.200Z,28.30
2023-11-22T22:40:25.931Z,31.53
2023-11-22T22:42:52.535Z,26.23
2023-11-22T22:45:19.094Z,31.60
2023-11-22T22:47:46.391Z,30.17
2023-11-22T22:50:13.253Z,29.57
2023-11-22T22:52:40.143Z,31.00
2023-11-22T22:55:08.404Z,32.63
2023-11-22T22:57:34.994Z,34.10
2023-11-22T23:00:01.638Z,30.70
2023-11-22T23:02:28.549Z,38.07
2023-11-22T23:04:55.103Z,35.70
2023-11-22T23:07:21.967Z,37.97
2023-11-22T23:09:48.571Z,34.83
2023-11-22T23:12:15.210Z,39.60
2023-11-22T23:14:41.960Z,42.00
2023-11-22T23:17:08.525Z,38.97
2023-11-22T23:19:36.332Z,39.47
2023-11-22T23:22:07.293Z,36.13
2023-11-22T23:24:34.228Z,40.43
2023-11-22T23:27:06.053Z,41.80
2023-11-22T23:29:34.021Z,40.73
2023-11-22T23:32:00.944Z,43.20
2023-11-22T23:34:27.810Z,38.57
2023-11-22T23:36:55.069Z,42.47
2023-11-22T23:39:22.364Z,41.13
2023-11-22T23:41:50.399Z,35.20
2023-11-22T23:44:17.258Z,43.47
2023-11-22T23:46:44.218Z,39.57
2023-11-22T23:49:10.917Z,40.00
2023-11-22T23:51:37.408Z,39.33
2023-11-22T23:54:03.975Z,40.40
2023-11-22T23:56:30.679Z,40.43
2023-11-22T23:58:57.416Z,38.30
